createdAt,value
2023-01-29T00:02:06.423Z,100049.41
2023-01-29T00:04:33.430Z,100040.78
2023-01-29T00:07:00.457Z,100012.34
2023-01-29T00:09:28.202Z,100036.91
2023-01-29T00:11:55.061Z,100037.13
2023-01-29T00:14:21.931Z,99999.03
2023-01-29T00:16:48.849Z,100040.00
2023-01-29T00:19:15.689Z,100031.81
2023-01-29T00:21:42.572Z,100034.47
2023-01-29T00:24:09.469Z,100036.34
2023-01-29T00:26:37.497Z,100040.47
2023-01-29T00:29:05.133Z,100045.81
2023-01-29T00:31:32.204Z,100034.09
2023-01-29T00:33:59.076Z,100043.53
2023-01-29T00:36:26.158Z,100040.63
2023-01-29T00:38:58.807Z,99978.16
2023-01-29T00:41:51.120Z,100011.34
2023-01-29T00:44:37.156Z,99990.03
2023-01-29T00:47:04.333Z,100052.94
2023-01-29T00:49:31.234Z,100050.50
2023-01-29T00:52:16.929Z,100057.88
2023-01-29T00:54:43.784Z,100048.44
2023-01-29T00:57:10.716Z,100055.25
2023-01-29T00:59:37.846Z,100049.91
2023-01-29T01:02:23.690Z,100059.34
2023-01-29T01:04:50.581Z,100060.81
2023-01-29T01:07:17.462Z,100061.63
2023-01-29T01:10:02.882Z,100063.47
2023-01-29T01:12:29.643Z,100068.41
2023-01-29T01:14:56.482Z,100066.97
2023-01-29T01:17:23.423Z,100061.25
2023-01-29T01:19:50.395Z,100071.69
2023-01-29T01:22:17.534Z,100062.25
2023-01-29T01:24:44.460Z,100065.75
2023-01-29T01:27:11.295Z,100074.59
2023-01-29T01:29:39.046Z,100082.78
2023-01-29T01:32:06.279Z,100075.81
2023-01-29T01:34:33.211Z,100091.59
2023-01-29T01:37:00.977Z,100083.00
2023-01-29T01:39:27.901Z,100076.63
2023-01-29T01:41:55.102Z,100079.31
2023-01-29T01:45:13.048Z,100071.72
2023-01-29T01:48:00.631Z,100082.81
2023-01-29T01:50:58.299Z,100089.38
2023-01-29T01:53:39.177Z,100079.75
2023-01-29T01:56:11.642Z,100086.50
2023-01-29T01:58:47.086Z,100058.41
2023-01-29T02:01:14.098Z,100082.59
2023-01-29T02:04:05.462Z,100070.31
2023-01-29T02:06:50.889Z,100068.44
2023-01-29T02:09:36.357Z,100061.03
2023-01-29T02:12:05.631Z,100074.38
2023-01-29T02:14:33.343Z,100052.03
2023-01-29T02:17:01.329Z,100068.00
2023-01-29T02:19:55.873Z,100057.34
2023-01-29T02:22:29.262Z,100055.47
2023-01-29T02:24:56.449Z,100053.44
2023-01-29T02:27:49.473Z,100046.06
2023-01-29T02:30:30.806Z,100038.03
2023-01-29T02:33:16.518Z,99987.41
2023-01-29T02:35:50.893Z,100029.00
2023-01-29T02:38:39.619Z,100032.91
2023-01-29T02:41:35.065Z,99979.63
2023-01-29T02:44:30.299Z,100027.16
2023-01-29T02:47:21.288Z,100012.59
2023-01-29T02:49:55.789Z,99974.09
2023-01-29T02:52:28.214Z,100007.69
2023-01-29T02:55:08.869Z,100011.34
2023-01-29T02:57:37.573Z,100009.53
2023-01-29T03:00:07.545Z,100006.88
2023-01-29T03:02:46.361Z,100021.03
2023-01-29T03:05:17.618Z,100019.16
2023-01-29T03:07:53.913Z,100026.34
2023-01-29T03:10:31.924Z,100034.38
2023-01-29T03:13:21.082Z,100002.00
2023-01-29T03:15:51.666Z,100034.97
2023-01-29T03:18:37.905Z,100035.19
2023-01-29T03:21:28.390Z,100029.03
2023-01-29T03:24:14.453Z,100013.69
2023-01-29T03:27:01.402Z,100014.72
2023-01-29T03:29:51.153Z,100053.88
2023-01-29T03:32:17.906Z,100057.81
2023-01-29T03:34:48.242Z,100058.22
2023-01-29T03:37:25.707Z,100032.78
2023-01-29T03:39:53.609Z,100062.72
2023-01-29T03:42:38.713Z,100060.44
2023-01-29T03:45:08.541Z,100059.00
2023-01-29T03:47:46.221Z,100063.53
2023-01-29T03:50:51.537Z,100071.13
2023-01-29T03:53:22.749Z,100056.56
2023-01-29T03:55:55.304Z,100053.50
2023-01-29T03:58:41.294Z,100049.19
2023-01-29T04:01:15.652Z,100033.78
2023-01-29T04:03:52.325Z,100037.28
2023-01-29T04:06:21.300Z,100039.13
2023-01-29T04:09:14.771Z,100011.25
2023-01-29T04:11:50.156Z,100032.53
2023-01-29T04:14:17.138Z,100029.72
2023-01-29T04:16:50.499Z,100035.84
2023-01-29T04:19:25.300Z,100025.78
2023-01-29T04:22:06.016Z,100020.44
2023-01-29T04:24:33.317Z,99972.69
2023-01-29T04:27:17.657Z,100006.69
2023-01-29T04:30:12.495Z,100011.59
2023-01-29T04:32:50.176Z,100014.28
2023-01-29T04:35:26.840Z,100014.88
2023-01-29T04:38:01.770Z,100007.69
2023-01-29T04:40:51.186Z,99988.84
2023-01-29T04:43:29.492Z,99994.97
2023-01-29T04:45:59.608Z,99991.69
2023-01-29T04:48:40.509Z,99994.78
2023-01-29T04:51:16.222Z,99982.47
2023-01-29T04:53:55.348Z,99969.94
2023-01-29T04:56:34.190Z,99969.94
2023-01-29T04:59:06.854Z,99958.69
2023-01-29T05:01:33.857Z,99956.00
2023-01-29T05:04:02.751Z,99933.69
2023-01-29T05:06:30.051Z,99951.91
2023-01-29T05:08:56.869Z,99957.44
2023-01-29T05:11:23.997Z,99913.78
2023-01-29T05:13:50.870Z,99948.59
2023-01-29T05:16:29.276Z,99950.44
2023-01-29T05:18:56.160Z,99955.16
2023-01-29T05:21:23.475Z,99948.84
2023-01-29T05:24:16.108Z,99956.19
2023-01-29T05:27:02.540Z,99959.25
2023-01-29T05:29:29.444Z,99934.50
2023-01-29T05:31:56.326Z,99959.91
2023-01-29T05:34:23.868Z,99961.34
2023-01-29T05:36:50.885Z,99961.53
2023-01-29T05:39:17.742Z,99937.41
2023-01-29T05:41:44.583Z,99963.81
2023-01-29T05:44:11.467Z,99966.06
2023-01-29T05:46:38.575Z,99940.69
2023-01-29T05:49:05.550Z,99972.63
2023-01-29T05:51:32.486Z,99976.34
2023-01-29T05:53:59.575Z,99968.13
2023-01-29T05:56:26.600Z,99966.91
2023-01-29T05:58:53.449Z,99962.19
2023-01-29T06:01:21.885Z,99967.94
2023-01-29T06:03:48.805Z,99974.69
2023-01-29T06:06:16.162Z,99972.00
2023-01-29T06:08:43.107Z,99973.06
2023-01-29T06:11:11.612Z,99979.44
2023-01-29T06:13:38.761Z,99986.00
2023-01-29T06:16:09.171Z,99981.06
2023-01-29T06:18:36.517Z,99974.09
2023-01-29T06:21:07.551Z,99983.94
2023-01-29T06:23:34.473Z,99941.75
2023-01-29T06:26:02.321Z,99998.91
2023-01-29T06:28:29.200Z,99991.09
2023-01-29T06:31:11.486Z,99985.19
2023-01-29T06:33:46.837Z,99989.06
2023-01-29T06:36:13.667Z,100004.28
2023-01-29T06:38:40.571Z,100003.41
2023-01-29T06:41:15.463Z,99971.25
2023-01-29T06:43:44.022Z,99998.72
2023-01-29T06:46:10.902Z,99993.19
2023-01-29T06:48:37.890Z,100002.22
2023-01-29T06:51:05.575Z,100003.03
2023-01-29T06:53:33.315Z,99995.03
2023-01-29T06:56:00.197Z,99999.16
2023-01-29T06:58:27.084Z,100006.34
2023-01-29T07:00:54.023Z,99973.53
2023-01-29T07:03:21.202Z,100003.66
2023-01-29T07:05:52.410Z,100005.28
2023-01-29T07:08:22.628Z,99977.63
2023-01-29T07:10:49.962Z,100014.94
2023-01-29T07:13:16.872Z,100018.00
2023-01-29T07:15:44.597Z,100018.63
2023-01-29T07:18:14.460Z,100022.34
2023-01-29T07:20:41.953Z,100021.53
2023-01-29T07:23:15.207Z,99962.72
2023-01-29T07:25:42.165Z,99998.75
2023-01-29T07:28:09.059Z,100026.84
2023-01-29T07:30:36.027Z,100027.66
2023-01-29T07:33:04.754Z,100022.34
2023-01-29T07:35:36.417Z,100016.38
2023-01-29T07:38:03.227Z,100023.16
2023-01-29T07:40:30.090Z,99998.34
2023-01-29T07:43:03.828Z,100011.66
2023-01-29T07:45:30.829Z,100014.53
2023-01-29T07:47:57.725Z,100008.38
2023-01-29T07:50:25.029Z,99978.47
2023-01-29T07:52:51.934Z,100020.66
2023-01-29T07:55:18.805Z,100011.66
2023-01-29T07:57:45.734Z,99988.50
2023-01-29T08:00:13.713Z,100012.50
2023-01-29T08:02:41.589Z,100025.81
2023-01-29T08:05:08.935Z,100034.00
2023-01-29T08:07:35.831Z,100026.84
2023-01-29T08:10:02.668Z,100003.06
2023-01-29T08:12:29.544Z,100040.38
2023-01-29T08:14:56.396Z,100039.56
2023-01-29T08:17:23.258Z,100053.53
2023-01-29T08:19:50.111Z,100045.53
2023-01-29T08:22:16.964Z,100046.53
2023-01-29T08:24:53.682Z,100050.22
2023-01-29T08:27:26.923Z,100040.38
2023-01-29T08:29:53.770Z,100044.69
2023-01-29T08:32:20.604Z,100032.16
2023-01-29T08:34:47.533Z,100041.78
2023-01-29T08:37:14.501Z,100038.94
2023-01-29T08:42:09.252Z,100056.56
2023-01-29T08:44:36.079Z,100058.00
2023-01-29T08:47:02.980Z,100056.97
2023-01-29T08:49:30.014Z,100067.44
2023-01-29T08:51:57.197Z,100066.00
2023-01-29T08:54:24.256Z,100073.59
2023-01-29T08:56:51.516Z,100054.72
2023-01-29T08:59:19.226Z,100072.56
2023-01-29T09:01:46.193Z,100070.94
2023-01-29T09:04:13.217Z,100070.13
2023-01-29T09:06:40.108Z,100077.47
2023-01-29T09:09:07.017Z,100076.66
2023-01-29T09:11:33.996Z,100075.84
2023-01-29T09:14:00.892Z,100073.81
2023-01-29T09:16:27.733Z,100063.94
2023-01-29T09:18:55.063Z,100066.38
2023-01-29T09:21:21.943Z,100061.06
2023-01-29T09:23:48.798Z,100059.19
2023-01-29T09:26:15.717Z,100056.34
2023-01-29T09:28:42.611Z,100047.94
2023-01-29T09:31:09.529Z,100061.47
2023-01-29T09:33:36.665Z,100048.16
2023-01-29T09:36:04.276Z,100043.63
2023-01-29T09:38:31.250Z,99993.41
2023-01-29T09:41:19.455Z,100025.53
2023-01-29T09:44:01.439Z,100000.38
2023-01-29T09:46:37.408Z,100034.59
2023-01-29T09:49:17.466Z,100040.97
2023-01-29T09:51:46.908Z,100046.69
2023-01-29T09:54:19.088Z,100046.28
2023-01-29T09:56:46.334Z,100048.72
2023-01-29T09:59:13.879Z,100048.94
2023-01-29T10:01:54.687Z,100039.09
2023-01-29T10:04:57.269Z,100036.00
2023-01-29T10:07:35.049Z,100037.03
2023-01-29T10:10:17.002Z,100022.47
2023-01-29T10:13:08.041Z,100016.31
2023-01-29T10:15:43.392Z,100008.31
2023-01-29T10:18:25.262Z,100016.88
2023-01-29T10:20:55.056Z,100003.56
2023-01-29T10:23:34.503Z,100003.56
2023-01-29T10:26:01.938Z,99992.69
2023-01-29T10:28:32.930Z,99993.47
2023-01-29T10:31:05.127Z,99991.84
2023-01-29T10:33:49.420Z,99989.97
2023-01-29T10:36:32.614Z,99926.88
2023-01-29T10:38:59.544Z,99967.38
2023-01-29T10:41:34.393Z,99935.03
2023-01-29T10:44:23.139Z,99955.88
2023-01-29T10:46:56.359Z,99949.47
2023-01-29T10:49:32.289Z,99934.91
2023-01-29T10:52:24.285Z,99920.50
2023-01-29T10:55:13.019Z,99920.31
2023-01-29T10:58:04.604Z,99920.06
2023-01-29T11:00:39.429Z,99917.22
2023-01-29T11:03:27.575Z,99905.50
2023-01-29T11:06:23.732Z,99902.63
2023-01-29T11:09:29.282Z,99899.72
2023-01-29T11:12:09.682Z,99893.38
2023-01-29T11:14:43.220Z,99897.66
2023-01-29T11:17:21.643Z,99884.31
2023-01-29T11:19:49.971Z,99887.78
2023-01-29T11:22:21.152Z,99882.19
2023-01-29T11:25:15.031Z,99882.59
2023-01-29T11:27:46.001Z,99878.28
2023-01-29T11:30:24.707Z,99872.06
2023-01-29T11:32:57.834Z,99868.34
2023-01-29T11:35:25.265Z,99831.28
2023-01-29T11:37:52.176Z,99853.56
2023-01-29T11:40:19.141Z,99851.88
2023-01-29T11:42:46.929Z,99823.41
2023-01-29T11:45:22.965Z,99844.59
2023-01-29T11:47:54.049Z,99845.22
2023-01-29T11:50:25.586Z,99836.97
2023-01-29T11:52:52.407Z,99848.03
2023-01-29T11:55:23.900Z,99840.63
2023-01-29T11:57:52.884Z,99809.28
2023-01-29T12:00:23.751Z,99830.69
2023-01-29T12:03:12.556Z,99788.50
2023-01-29T12:05:40.116Z,99822.97
2023-01-29T12:08:15.907Z,99823.16
2023-01-29T12:10:42.927Z,99815.69
2023-01-29T12:13:09.678Z,99824.25
2023-01-29T12:15:37.178Z,99821.53
2023-01-29T12:18:12.695Z,99762.63
2023-01-29T12:20:41.883Z,99787.88
2023-01-29T12:23:14.537Z,99812.09
2023-01-29T12:26:25.436Z,99809.56
2023-01-29T12:29:14.148Z,99809.69
2023-01-29T12:32:08.489Z,99742.78
2023-01-29T12:35:04.736Z,99796.16
2023-01-29T12:37:46.161Z,99793.84
2023-01-29T12:40:17.116Z,99795.03
2023-01-29T12:42:49.935Z,99782.97
2023-01-29T12:45:19.020Z,99792.97
2023-01-29T12:47:49.376Z,99787.78
2023-01-29T12:50:26.379Z,99766.53
2023-01-29T12:53:14.598Z,99793.38
2023-01-29T12:55:47.727Z,99782.81
2023-01-29T12:58:16.406Z,99787.50
2023-01-29T13:00:48.354Z,99791.56
2023-01-29T13:03:33.269Z,99753.81
2023-01-29T13:06:02.617Z,99787.72
2023-01-29T13:08:39.075Z,99784.00
2023-01-29T13:11:13.271Z,99781.25
2023-01-29T13:13:53.975Z,99747.91
2023-01-29T13:16:26.081Z,99775.19
2023-01-29T13:19:06.298Z,99771.25
2023-01-29T13:21:40.843Z,99767.66
2023-01-29T13:24:17.722Z,99735.22
2023-01-29T13:26:45.862Z,99755.31
2023-01-29T13:29:29.280Z,99758.47
2023-01-29T13:31:57.074Z,99720.03
2023-01-29T13:34:31.652Z,99728.41
2023-01-29T13:37:03.073Z,99754.25
2023-01-29T13:39:31.910Z,99714.44
2023-01-29T13:41:59.894Z,99703.38
2023-01-29T13:44:33.856Z,99743.78
2023-01-29T13:47:06.579Z,99743.09
2023-01-29T13:49:34.905Z,99735.03
2023-01-29T13:52:28.852Z,99747.41
2023-01-29T13:55:01.506Z,99722.66
2023-01-29T13:57:53.978Z,99703.91
2023-01-29T14:00:22.524Z,99726.31
2023-01-29T14:02:55.296Z,99717.22
2023-01-29T14:05:31.490Z,99715.72
2023-01-29T14:08:13.813Z,99728.66
2023-01-29T14:10:41.823Z,99671.19
2023-01-29T14:13:23.944Z,99725.38
2023-01-29T14:15:56.910Z,99721.66
2023-01-29T14:18:25.339Z,99718.41
2023-01-29T14:21:18.033Z,99707.22
2023-01-29T14:23:46.755Z,99715.25
2023-01-29T14:26:31.369Z,99690.78
2023-01-29T14:29:25.581Z,99721.78
2023-01-29T14:32:06.773Z,99710.72
2023-01-29T14:34:42.726Z,99709.44
2023-01-29T14:37:15.504Z,99715.69
2023-01-29T14:39:42.521Z,99719.22
2023-01-29T14:42:22.136Z,99719.78
2023-01-29T14:45:00.201Z,99657.16
2023-01-29T14:47:27.261Z,99707.22
2023-01-29T14:49:58.224Z,99679.03
2023-01-29T14:52:29.940Z,99697.06
2023-01-29T14:54:59.552Z,99709.44
2023-01-29T14:57:26.449Z,99702.75
2023-01-29T14:59:54.912Z,99709.50
2023-01-29T15:02:33.128Z,99711.38
2023-01-29T15:05:00.206Z,99711.03
2023-01-29T15:07:34.388Z,99673.44
2023-01-29T15:10:21.879Z,99702.75
2023-01-29T15:12:54.471Z,99707.09
2023-01-29T15:15:25.716Z,99678.78
2023-01-29T15:18:00.025Z,99714.31
2023-01-29T15:20:27.908Z,99713.47
2023-01-29T15:22:54.750Z,99707.31
2023-01-29T15:25:21.714Z,99714.31
2023-01-29T15:27:48.610Z,99707.56
2023-01-29T15:30:20.387Z,99715.13
2023-01-29T15:32:47.285Z,99708.13
2023-01-29T15:35:25.805Z,99697.41
2023-01-29T15:38:18.373Z,99696.84
2023-01-29T15:41:14.020Z,99694.63
2023-01-29T15:43:43.293Z,99689.97
2023-01-29T15:46:29.078Z,99694.38
2023-01-29T15:48:57.293Z,99699.19
2023-01-29T15:51:25.199Z,99692.66
2023-01-29T15:53:53.229Z,99672.75
2023-01-29T15:56:23.889Z,99676.81
2023-01-29T15:58:51.176Z,99674.84
2023-01-29T16:01:18.185Z,99692.19
2023-01-29T16:03:45.077Z,99678.69
2023-01-29T16:06:11.962Z,99684.28
2023-01-29T16:08:38.990Z,99680.78
2023-01-29T16:11:06.493Z,99689.84
2023-01-29T16:13:35.332Z,99665.66
2023-01-29T16:16:21.326Z,99661.28
2023-01-29T16:18:59.550Z,99683.00
2023-01-29T16:21:31.055Z,99669.69
2023-01-29T16:24:11.954Z,99668.66
2023-01-29T16:26:43.664Z,99646.88
2023-01-29T16:29:12.509Z,99669.31
2023-01-29T16:31:39.500Z,99643.94
2023-01-29T16:34:14.265Z,99680.75
2023-01-29T16:36:45.357Z,99668.63
2023-01-29T16:39:19.136Z,99677.59
2023-01-29T16:41:46.011Z,99661.75
2023-01-29T16:44:15.885Z,99663.06
2023-01-29T16:46:46.535Z,99662.47
2023-01-29T16:49:25.595Z,99665.59
2023-01-29T16:51:53.084Z,99657.44
2023-01-29T16:54:23.527Z,99660.84
2023-01-29T16:56:52.189Z,99667.22
2023-01-29T16:59:26.843Z,99657.78
2023-01-29T17:01:56.807Z,99670.34
2023-01-29T17:04:23.674Z,99664.66
2023-01-29T17:06:54.943Z,99652.31
2023-01-29T17:09:32.649Z,99628.31
2023-01-29T17:12:01.752Z,99652.66
2023-01-29T17:14:28.592Z,99651.47
2023-01-29T17:16:56.997Z,99638.16
2023-01-29T17:19:25.401Z,99668.06
2023-01-29T17:21:52.401Z,99666.47
2023-01-29T17:24:19.254Z,99669.34
2023-01-29T17:26:46.148Z,99657.84
2023-01-29T17:29:14.007Z,99652.13
2023-01-29T17:31:41.253Z,99655.25
2023-01-29T17:34:15.227Z,99640.91
2023-01-29T17:36:42.846Z,99625.19
2023-01-29T17:39:27.880Z,99654.53
2023-01-29T17:41:56.141Z,99664.88
2023-01-29T17:44:23.181Z,99650.09
2023-01-29T17:46:50.090Z,99611.56
2023-01-29T17:49:25.194Z,99643.09
2023-01-29T17:51:53.048Z,99619.22
2023-01-29T17:54:20.194Z,99651.69
2023-01-29T17:56:47.236Z,99638.41
2023-01-29T17:59:18.657Z,99644.34
2023-01-29T18:01:46.340Z,99634.09
2023-01-29T18:04:13.504Z,99630.63
2023-01-29T18:06:40.892Z,99633.75
2023-01-29T18:09:07.748Z,99569.31
2023-01-29T18:11:35.390Z,99616.75
2023-01-29T18:14:03.084Z,99616.16
2023-01-29T18:16:41.004Z,99593.22
2023-01-29T18:19:22.241Z,99615.44
2023-01-29T18:21:49.792Z,99622.28
2023-01-29T18:24:16.795Z,99629.72
2023-01-29T18:26:43.829Z,99630.97
2023-01-29T18:29:10.836Z,99638.19
2023-01-29T18:31:37.756Z,99642.91
2023-01-29T18:34:04.697Z,99641.88
2023-01-29T18:36:31.674Z,99653.59
2023-01-29T18:38:58.585Z,99640.50
2023-01-29T18:41:25.559Z,99646.03
2023-01-29T18:43:52.936Z,99648.94
2023-01-29T18:46:20.136Z,99612.97
2023-01-29T18:48:47.020Z,99642.75
2023-01-29T18:51:13.876Z,99644.63
2023-01-29T18:53:40.826Z,99625.94
2023-01-29T18:56:07.986Z,99621.41
2023-01-29T18:58:38.143Z,99622.91
2023-01-29T19:01:09.825Z,99625.78
2023-01-29T19:03:37.350Z,99628.03
2023-01-29T19:06:04.864Z,99623.72
2023-01-29T19:08:31.864Z,99621.03
2023-01-29T19:11:02.335Z,99623.94
2023-01-29T19:13:30.296Z,99614.28
2023-01-29T19:15:57.282Z,99616.75
2023-01-29T19:18:26.057Z,99618.59
2023-01-29T19:20:53.120Z,99617.56
2023-01-29T19:23:20.507Z,99599.59
2023-01-29T19:25:47.483Z,99606.97
2023-01-29T19:28:14.662Z,99601.81
2023-01-29T19:30:41.557Z,99590.78
2023-01-29T19:33:09.669Z,99599.59
2023-01-29T19:35:36.746Z,99591.03
2023-01-29T19:38:04.137Z,99586.50
2023-01-29T19:40:31.083Z,99588.34
2023-01-29T19:42:58.456Z,99586.69
2023-01-29T19:45:48.599Z,99574.84
2023-01-29T19:48:21.330Z,99568.69
2023-01-29T19:50:52.901Z,99568.47
2023-01-29T19:53:19.728Z,99570.53
2023-01-29T19:55:46.564Z,99567.84
2023-01-29T19:58:13.971Z,99565.44
2023-01-29T20:00:40.887Z,99562.97
2023-01-29T20:03:07.747Z,99566.69
2023-01-29T20:05:37.002Z,99563.22
2023-01-29T20:08:04.017Z,99556.31
2023-01-29T20:10:30.837Z,99562.25
2023-01-29T20:12:58.118Z,99558.53
2023-01-29T20:15:25.039Z,99552.81
2023-01-29T20:17:51.876Z,99549.94
2023-01-29T20:20:19.184Z,99551.78
2023-01-29T20:22:46.309Z,99549.34
2023-01-29T20:25:13.742Z,99551.41
2023-01-29T20:27:41.005Z,99549.78
2023-01-29T20:30:08.457Z,99546.88
2023-01-29T20:32:35.428Z,99552.66
2023-01-29T20:35:02.517Z,99545.94
2023-01-29T20:37:29.461Z,99544.31
2023-01-29T20:39:56.308Z,99541.03
2023-01-29T20:42:23.178Z,99541.28
2023-01-29T20:44:50.017Z,99539.88
2023-01-29T20:47:16.849Z,99540.91
2023-01-29T20:49:43.942Z,99545.88
2023-01-29T20:52:11.360Z,99540.75
2023-01-29T20:54:38.207Z,99548.75
2023-01-29T20:57:05.129Z,99537.72
2023-01-29T20:59:32.127Z,99541.19
2023-01-29T21:01:59.031Z,99542.81
2023-01-29T21:04:27.353Z,99537.72
2023-01-29T21:06:54.218Z,99491.00
2023-01-29T21:09:21.115Z,99542.00
2023-01-29T21:11:48.053Z,99542.09
2023-01-29T21:14:14.986Z,99532.03
2023-01-29T21:16:41.853Z,99534.69
2023-01-29T21:19:08.928Z,99533.28
2023-01-29T21:21:35.829Z,99516.50
2023-01-29T21:24:02.684Z,99523.25
2023-01-29T21:26:29.611Z,99517.91
2023-01-29T21:28:56.486Z,99501.09
2023-01-29T21:31:23.438Z,99472.94
2023-01-29T21:33:50.413Z,99473.63
2023-01-29T21:36:21.061Z,99492.94
2023-01-29T21:38:48.206Z,99488.28
2023-01-29T21:41:15.084Z,99483.97
2023-01-29T21:43:41.936Z,99479.69
2023-01-29T21:46:12.222Z,99481.31
2023-01-29T21:48:39.855Z,99467.41
2023-01-29T21:51:06.726Z,99438.66
2023-01-29T21:53:33.907Z,99456.72
2023-01-29T21:56:01.722Z,99457.31
2023-01-29T21:58:28.740Z,99427.16
2023-01-29T22:00:55.701Z,99447.06
2023-01-29T22:03:22.623Z,99439.16
2023-01-29T22:05:50.197Z,99439.75
2023-01-29T22:08:17.926Z,99433.81
2023-01-29T22:10:45.188Z,99438.34
2023-01-29T22:13:12.338Z,99435.88
2023-01-29T22:15:39.244Z,99404.72
2023-01-29T22:18:06.230Z,99424.06
2023-01-29T22:20:33.104Z,99430.56
2023-01-29T22:23:00.616Z,99394.06
2023-01-29T22:25:27.774Z,99430.34
2023-01-29T22:27:54.704Z,99433.47
2023-01-29T22:30:23.280Z,99423.00
2023-01-29T22:32:50.576Z,99421.38
2023-01-29T22:35:17.657Z,99381.16
2023-01-29T22:37:45.148Z,99410.06
2023-01-29T22:40:13.008Z,99398.88
2023-01-29T22:42:39.887Z,99378.91
2023-01-29T22:45:08.050Z,99402.72
2023-01-29T22:47:34.946Z,99392.84
2023-01-29T22:50:01.819Z,99397.75
2023-01-29T22:52:38.299Z,99388.13
2023-01-29T22:55:09.716Z,99399.59
2023-01-29T22:57:37.099Z,99387.75
2023-01-29T23:00:09.610Z,99387.53
2023-01-29T23:02:36.629Z,99342.53
2023-01-29T23:05:04.328Z,99376.28
2023-01-29T23:07:31.196Z,99374.44
2023-01-29T23:09:58.037Z,99370.34
2023-01-29T23:12:24.950Z,99361.59
2023-01-29T23:14:51.808Z,99362.22
2023-01-29T23:17:18.746Z,99360.94
2023-01-29T23:19:45.623Z,99362.00
2023-01-29T23:22:12.501Z,99341.78
2023-01-29T23:24:39.374Z,99347.25
2023-01-29T23:27:15.415Z,99323.19
2023-01-29T23:29:48.543Z,99301.22
2023-01-29T23:32:18.674Z,99329.69
2023-01-29T23:34:45.597Z,99319.84
2023-01-29T23:37:12.457Z,99309.19
2023-01-29T23:39:39.377Z,99306.75
2023-01-29T23:42:06.240Z,99298.16
2023-01-29T23:44:33.081Z,99273.66
2023-01-29T23:47:00.051Z,99278.78
2023-01-29T23:49:27.070Z,99276.13
2023-01-29T23:51:53.958Z,99277.97
2023-01-29T23:54:20.864Z,99272.25
2023-01-29T23:56:47.746Z,99237.78
2023-01-29T23:59:15.112Z,99257.06
